Time;durP1;ratioP1;P1;durP2;ratioP2;P2;SDS_P1;SDS_P2;PMS_P1;PMS_P2;Temp;Humidity;BMP_temperature;BMP_pressure;BME280_temperature;BME280_humidity;BME280_pressure;Samples;Min_cycle;Max_cycle;Signal;HPM_P1;HPM_P2
2023/08/01 00:02:21;;;;;;;;;;;;;;;11.79;70.44;94194.19;5023549;28;19964;-70
2023/08/01 00:04:46;;;;;;;;;;;;;;;12.65;67.23;94168.59;5024164;28;20271;-69
2023/08/01 00:07:12;;;;;;;;;;;;;;;13.17;64.54;94170.75;5023645;28;19940;-69
2023/08/01 00:09:37;;;;;;;;;;;;;;;13.04;64.37;94166.41;5023662;28;19924;-68
2023/08/01 00:12:02;;;;;;;;;;;;;;;13.16;64.39;94160.28;5035249;28;19966;-69
2023/08/01 00:14:27;;;;;;;;;;;;;;;13.21;64.48;94159.56;5025490;28;19921;-69
2023/08/01 00:16:53;;;;;;;;;;;;;;;12.44;67.38;94152.00;5023277;28;20047;-69
2023/08/01 00:19:18;;;;;;;;;;;;;;;13.04;65.42;94139.69;5030640;28;20407;-69
2023/08/01 00:21:43;;;;;;;;;;;;;;;12.53;66.62;94158.69;5005154;28;19921;-69
2023/08/01 00:24:08;;;;;;;;;;;;;;;12.79;66.26;94137.97;5022989;28;19921;-68
2023/08/01 00:26:34;;;;;;;;;;;;;;;12.41;66.99;94131.94;5018297;28;19944;-73
2023/08/01 00:28:59;;;;;;;;;;;;;;;11.49;70.48;94144.25;5016792;28;19952;-72
2023/08/01 00:31:24;;;;;;;;;;;;;;;12.11;69.61;94113.25;5020978;28;20427;-71
2023/08/01 00:33:50;;;;;;;;;;;;;;;10.98;74.19;94115.75;5020489;28;19972;-73
2023/08/01 00:36:15;;;;;;;;;;;;;;;12.41;68.48;94099.91;5020577;28;20310;-72
2023/08/01 00:38:42;;;;;;;;;;;;;;;12.66;67.39;94104.31;5018038;28;19979;-73
2023/08/01 00:41:08;;;;;;;;;;;;;;;12.52;68.01;94105.53;5017470;28;20423;-70
2023/08/01 00:43:33;;;;;;;;;;;;;;;12.52;67.72;94098.31;5017664;28;19925;-73
2023/08/01 00:45:59;;;;;;;;;;;;;;;13.09;65.96;94088.22;5020245;28;20297;-71
2023/08/01 00:48:25;;;;;;;;;;;;;;;13.21;65.40;94066.03;5004921;28;19974;-71
2023/08/01 00:50:50;;;;;;;;;;;;;;;11.57;69.71;94085.34;5003776;28;19921;-72
2023/08/01 00:53:15;;;;;;;;;;;;;;;12.44;67.25;94055.94;5019411;28;20727;-72
2023/08/01 00:55:41;;;;;;;;;;;;;;;12.59;67.15;94058.19;5001431;28;19921;-71
2023/08/01 00:58:06;;;;;;;;;;;;;;;12.10;68.76;94088.41;5014879;28;19948;-70
2023/08/01 01:00:32;;;;;;;;;;;;;;;12.19;68.90;94045.41;5038450;23;20064;-72
2023/08/01 01:02:57;;;;;;;;;;;;;;;12.08;68.57;94081.69;4996439;28;19971;-72
2023/08/01 01:05:23;;;;;;;;;;;;;;;12.10;68.76;94067.09;5002108;28;19965;-72
2023/08/01 01:07:49;;;;;;;;;;;;;;;11.95;69.28;94074.63;4992384;28;19928;-72
2023/08/01 01:10:15;;;;;;;;;;;;;;;11.03;74.86;94075.19;5003193;28;20013;-73
2023/08/01 01:12:40;;;;;;;;;;;;;;;10.91;73.47;94099.03;5003931;28;20032;-73
2023/08/01 01:15:05;;;;;;;;;;;;;;;10.78;75.92;94083.16;5009110;28;19921;-72
2023/08/01 01:17:31;;;;;;;;;;;;;;;11.09;74.42;94076.19;4999614;28;19984;-72
2023/08/01 01:19:56;;;;;;;;;;;;;;;11.04;75.29;94083.97;5005264;28;20238;-72
2023/08/01 01:22:21;;;;;;;;;;;;;;;10.85;76.07;94067.97;4999334;28;19922;-72
2023/08/01 01:24:47;;;;;;;;;;;;;;;11.39;73.50;94072.78;5003292;28;19973;-72
2023/08/01 01:27:12;;;;;;;;;;;;;;;11.30;74.06;94066.97;4999275;28;19925;-72
2023/08/01 01:29:37;;;;;;;;;;;;;;;11.26;74.49;94058.59;4984216;28;19926;-72
2023/08/01 01:32:02;;;;;;;;;;;;;;;11.59;72.91;94042.47;4999430;28;20282;-72
2023/08/01 01:34:28;;;;;;;;;;;;;;;11.79;71.56;94038.75;4985917;28;19921;-72
2023/08/01 01:36:53;;;;;;;;;;;;;;;11.48;73.31;94049.34;4995047;28;19937;-72
2023/08/01 01:39:18;;;;;;;;;;;;;;;10.90;75.68;94051.31;4999992;28;20283;-72
2023/08/01 01:41:43;;;;;;;;;;;;;;;11.08;76.00;94040.69;4997615;28;19917;-72
2023/08/01 01:44:09;;;;;;;;;;;;;;;10.94;76.47;94045.34;5005511;28;19928;-72
2023/08/01 01:46:34;;;;;;;;;;;;;;;11.11;76.01;94023.50;4996680;28;19932;-72
2023/08/01 01:48:59;;;;;;;;;;;;;;;11.22;75.18;94024.63;5005551;28;19977;-72
2023/08/01 01:51:25;;;;;;;;;;;;;;;11.25;74.87;94026.84;5000525;28;19940;-72
2023/08/01 01:53:50;;;;;;;;;;;;;;;11.44;74.17;94008.19;4998681;28;20385;-72
2023/08/01 01:56:16;;;;;;;;;;;;;;;11.67;73.43;94006.69;5000080;28;19922;-72
2023/08/01 01:58:41;;;;;;;;;;;;;;;11.35;74.62;94010.31;5002433;28;20004;-72
2023/08/01 02:01:06;;;;;;;;;;;;;;;10.79;77.04;93988.97;4998281;28;19925;-72
2023/08/01 02:03:31;;;;;;;;;;;;;;;10.66;78.06;93987.22;4999346;28;20402;-72
2023/08/01 02:05:57;;;;;;;;;;;;;;;10.85;77.11;93983.56;5004228;28;20489;-72
2023/08/01 02:08:22;;;;;;;;;;;;;;;11.41;75.21;93971.31;5001123;28;19929;-72
2023/08/01 02:10:47;;;;;;;;;;;;;;;11.54;74.35;93959.69;4999667;28;19927;-72
2023/08/01 02:13:13;;;;;;;;;;;;;;;11.60;73.65;93959.59;5004450;28;19952;-72
2023/08/01 02:15:38;;;;;;;;;;;;;;;10.94;76.47;93948.66;5002284;28;19925;-71
2023/08/01 02:18:03;;;;;;;;;;;;;;;11.39;74.45;93945.72;5001667;28;19918;-71
2023/08/01 02:20:29;;;;;;;;;;;;;;;11.11;76.14;93933.78;4998499;28;19999;-71
2023/08/01 02:22:54;;;;;;;;;;;;;;;11.11;75.33;93967.56;4999657;28;19918;-71
2023/08/01 02:25:19;;;;;;;;;;;;;;;11.37;74.97;93954.97;5011597;28;19917;-71
2023/08/01 02:27:44;;;;;;;;;;;;;;;10.99;75.96;93976.25;5009863;28;20112;-71
2023/08/01 02:30:10;;;;;;;;;;;;;;;11.22;76.73;93963.38;5003950;28;19922;-71
2023/08/01 02:32:35;;;;;;;;;;;;;;;11.62;75.31;93920.22;5001943;28;19921;-72
2023/08/01 02:35:00;;;;;;;;;;;;;;;11.57;75.27;93948.59;4999961;28;19949;-72
2023/08/01 02:37:25;;;;;;;;;;;;;;;12.21;71.52;93933.97;4998489;28;19928;-72
2023/08/01 02:39:51;;;;;;;;;;;;;;;11.49;75.66;93917.75;5002224;28;20293;-72
2023/08/01 02:42:16;;;;;;;;;;;;;;;12.25;71.05;93916.47;5000595;28;19929;-72
2023/08/01 02:44:41;;;;;;;;;;;;;;;12.54;69.66;93913.91;5004035;28;19921;-72
2023/08/01 02:47:07;;;;;;;;;;;;;;;12.77;68.69;93899.75;5006846;28;19929;-72
2023/08/01 02:49:32;;;;;;;;;;;;;;;12.44;69.31;93905.69;5002715;28;19921;-72
2023/08/01 02:51:58;;;;;;;;;;;;;;;11.52;73.91;93911.94;5004995;28;20324;-71
2023/08/01 02:54:24;;;;;;;;;;;;;;;11.59;74.19;93909.22;5003614;28;19964;-72
2023/08/01 02:56:49;;;;;;;;;;;;;;;11.28;73.34;93913.72;5004175;28;19934;-72
2023/08/01 02:59:14;;;;;;;;;;;;;;;10.99;79.36;93895.59;5004770;28;19932;-72
2023/08/01 03:01:39;;;;;;;;;;;;;;;10.95;77.06;93903.19;4997649;28;19997;-72
2023/08/01 03:04:05;;;;;;;;;;;;;;;11.13;76.31;93889.06;4999677;28;20321;-72
2023/08/01 03:06:33;;;;;;;;;;;;;;;12.23;72.44;93902.53;4994362;28;20531;-72
2023/08/01 03:08:59;;;;;;;;;;;;;;;11.59;73.81;93888.69;5001961;28;19925;-72
2023/08/01 03:11:24;;;;;;;;;;;;;;;11.02;75.55;93891.66;5006293;28;19920;-71
2023/08/01 03:13:50;;;;;;;;;;;;;;;11.45;75.70;93879.25;5002821;28;19996;-72
2023/08/01 03:16:16;;;;;;;;;;;;;;;11.07;77.33;93897.94;4987943;28;20007;-72
2023/08/01 03:18:41;;;;;;;;;;;;;;;11.28;75.16;93887.88;5000809;28;20369;-71
2023/08/01 03:21:06;;;;;;;;;;;;;;;11.55;74.13;93906.16;5003528;28;20756;-72
2023/08/01 03:23:31;;;;;;;;;;;;;;;11.28;74.44;93900.41;4987535;28;19921;-72
2023/08/01 03:25:57;;;;;;;;;;;;;;;10.91;78.70;93898.53;5001214;28;20283;-70
2023/08/01 03:28:22;;;;;;;;;;;;;;;11.60;76.01;93898.28;4997613;28;19922;-72
2023/08/01 03:30:49;;;;;;;;;;;;;;;11.43;75.82;93892.81;4999131;28;20457;-73
2023/08/01 03:33:15;;;;;;;;;;;;;;;11.18;76.22;93891.06;4995248;28;19932;-72
2023/08/01 03:35:40;;;;;;;;;;;;;;;10.93;77.27;93899.13;4997387;28;19948;-72
2023/08/01 03:38:05;;;;;;;;;;;;;;;10.78;78.85;93905.63;4995694;28;19933;-72
2023/08/01 03:40:31;;;;;;;;;;;;;;;10.65;80.06;93909.25;4998334;28;20329;-73
2023/08/01 03:42:56;;;;;;;;;;;;;;;9.90;82.60;93914.38;5002369;28;19921;-71
2023/08/01 03:45:21;;;;;;;;;;;;;;;10.00;82.70;93918.38;5007209;28;19929;-72
2023/08/01 03:47:46;;;;;;;;;;;;;;;10.02;82.33;93911.81;5003081;28;19921;-72
2023/08/01 03:50:13;;;;;;;;;;;;;;;9.87;82.40;93920.09;5007556;28;19967;-72
2023/08/01 03:52:38;;;;;;;;;;;;;;;10.23;81.54;93908.00;5001203;28;19926;-72
2023/08/01 03:55:04;;;;;;;;;;;;;;;10.01;82.45;93915.50;5000209;28;20342;-72
2023/08/01 03:57:29;;;;;;;;;;;;;;;10.01;82.08;93904.88;5011350;28;19955;-73
2023/08/01 03:59:54;;;;;;;;;;;;;;;10.28;80.08;93906.53;5003719;28;20014;-73
2023/08/01 04:02:20;;;;;;;;;;;;;;;9.84;81.83;93925.84;5005145;28;19981;-72
2023/08/01 04:04:45;;;;;;;;;;;;;;;10.09;81.29;93907.28;4998810;28;19922;-73
2023/08/01 04:07:10;;;;;;;;;;;;;;;9.72;82.54;93909.75;5001336;28;19921;-72
2023/08/01 04:09:38;;;;;;;;;;;;;;;9.83;81.90;93927.69;4980873;28;19936;-72
2023/08/01 04:12:03;;;;;;;;;;;;;;;9.20;85.41;93966.41;4994593;28;20362;-72
2023/08/01 04:14:29;;;;;;;;;;;;;;;9.19;85.80;93925.78;5002493;28;19964;-72
2023/08/01 04:16:54;;;;;;;;;;;;;;;8.94;85.61;93938.91;5009524;28;20469;-75
2023/08/01 04:19:19;;;;;;;;;;;;;;;8.89;85.61;93941.38;5008054;28;19940;-73
2023/08/01 04:21:44;;;;;;;;;;;;;;;8.31;86.39;93956.97;5000688;28;19922;-73
2023/08/01 04:24:10;;;;;;;;;;;;;;;7.66;88.56;93959.09;4997226;28;20020;-73
2023/08/01 04:26:36;;;;;;;;;;;;;;;7.79;87.55;93960.22;5000524;28;19932;-71
2023/08/01 04:29:02;;;;;;;;;;;;;;;7.93;87.26;93963.69;5000112;28;19917;-73
2023/08/01 04:31:27;;;;;;;;;;;;;;;7.62;88.75;93968.47;5003710;28;20432;-73
2023/08/01 04:33:52;;;;;;;;;;;;;;;8.23;85.41;93970.44;5005106;28;19928;-74
2023/08/01 04:36:17;;;;;;;;;;;;;;;7.82;87.05;93966.94;5001812;28;19932;-72
2023/08/01 04:38:43;;;;;;;;;;;;;;;7.18;90.28;93964.47;5002192;28;19929;-70
2023/08/01 04:41:08;;;;;;;;;;;;;;;7.31;89.70;93963.72;4998964;28;19977;-70
2023/08/01 04:43:33;;;;;;;;;;;;;;;7.24;90.19;93972.44;5012344;28;20026;-69
2023/08/01 04:45:58;;;;;;;;;;;;;;;7.40;89.91;93965.16;5004122;28;20097;-70
2023/08/01 04:48:24;;;;;;;;;;;;;;;7.34;89.41;93968.63;5003983;28;19928;-71
2023/08/01 04:50:49;;;;;;;;;;;;;;;7.30;90.25;93977.94;5007202;28;19975;-69
2023/08/01 04:53:14;;;;;;;;;;;;;;;7.40;89.90;93967.81;4996958;28;19922;-69
2023/08/01 04:55:39;;;;;;;;;;;;;;;7.59;88.28;93970.72;4972481;28;19922;-70
2023/08/01 04:58:05;;;;;;;;;;;;;;;7.57;87.46;93984.16;5009652;28;20377;-70
2023/08/01 05:00:30;;;;;;;;;;;;;;;7.41;88.73;93982.66;4999585;28;20120;-70
2023/08/01 05:02:55;;;;;;;;;;;;;;;7.35;89.12;93986.91;5003660;28;19921;-71
2023/08/01 05:05:20;;;;;;;;;;;;;;;7.53;87.80;93997.00;4999853;28;19930;-70
2023/08/01 05:07:46;;;;;;;;;;;;;;;7.51;88.43;93988.41;5000426;28;19928;-70
2023/08/01 05:10:11;;;;;;;;;;;;;;;7.39;88.12;93993.44;5003557;28;19928;-69
2023/08/01 05:12:36;;;;;;;;;;;;;;;7.21;88.91;94004.56;4999246;28;19929;-69
2023/08/01 05:15:02;;;;;;;;;;;;;;;7.22;89.17;94003.59;5007342;28;20535;-70
2023/08/01 05:17:27;;;;;;;;;;;;;;;6.90;91.64;93995.25;5000667;28;19932;-70
2023/08/01 05:19:52;;;;;;;;;;;;;;;7.04;91.26;93990.84;4999469;28;19929;-70
2023/08/01 05:22:18;;;;;;;;;;;;;;;6.93;91.56;93992.22;4995792;28;19964;-70
2023/08/01 05:24:43;;;;;;;;;;;;;;;6.72;91.60;94009.81;4998546;28;19925;-70
2023/08/01 05:27:08;;;;;;;;;;;;;;;6.88;91.09;94013.16;5000734;28;20382;-70
2023/08/01 05:29:33;;;;;;;;;;;;;;;6.75;91.05;94011.25;5009176;28;19994;-72
2023/08/01 05:31:58;;;;;;;;;;;;;;;6.92;90.02;94009.13;4991674;28;20052;-72
2023/08/01 05:34:24;;;;;;;;;;;;;;;7.13;87.93;94025.91;5008402;28;19909;-72
2023/08/01 05:36:50;;;;;;;;;;;;;;;7.44;87.26;94016.69;4999143;28;20461;-72
2023/08/01 05:39:15;;;;;;;;;;;;;;;7.17;87.45;94027.16;5008215;28;19935;-70
2023/08/01 05:41:40;;;;;;;;;;;;;;;7.47;86.01;94048.09;4998699;28;19926;-70
2023/08/01 05:44:06;;;;;;;;;;;;;;;7.62;85.08;94032.03;4995289;28;19937;-69
2023/08/01 05:46:31;;;;;;;;;;;;;;;7.86;83.89;94040.50;4998780;28;19932;-70
2023/08/01 05:48:56;;;;;;;;;;;;;;;7.82;83.45;94041.13;5007314;28;19975;-69
2023/08/01 05:51:21;;;;;;;;;;;;;;;7.68;84.62;94043.69;5003529;28;19921;-70
2023/08/01 05:53:47;;;;;;;;;;;;;;;7.44;84.91;94053.78;5005456;28;20312;-69
2023/08/01 05:56:13;;;;;;;;;;;;;;;7.64;82.27;94053.88;5009838;28;20059;-69
2023/08/01 05:58:38;;;;;;;;;;;;;;;7.78;83.37;94054.75;5009534;28;20678;-69
2023/08/01 06:01:03;;;;;;;;;;;;;;;7.38;83.56;94065.16;5013240;28;19925;-70
2023/08/01 06:03:29;;;;;;;;;;;;;;;7.45;83.71;94051.94;5007146;28;19928;-70
2023/08/01 06:05:54;;;;;;;;;;;;;;;7.67;83.04;94052.66;5005289;28;19925;-69
2023/08/01 06:08:19;;;;;;;;;;;;;;;7.24;84.04;94049.19;5009001;28;19944;-69
2023/08/01 06:10:44;;;;;;;;;;;;;;;7.00;85.93;94053.94;5003759;28;20341;-69
2023/08/01 06:13:10;;;;;;;;;;;;;;;6.86;87.79;94057.50;5004054;28;19947;-70
2023/08/01 06:15:35;;;;;;;;;;;;;;;6.95;86.74;94059.00;5008960;28;19979;-70
2023/08/01 06:18:01;;;;;;;;;;;;;;;6.67;87.86;94066.94;5008504;28;19964;-70
2023/08/01 06:20:27;;;;;;;;;;;;;;;6.54;88.27;94071.13;5016118;28;19917;-69
2023/08/01 06:22:52;;;;;;;;;;;;;;;6.74;86.90;94055.38;5003135;28;19976;-71
2023/08/01 06:25:17;;;;;;;;;;;;;;;6.92;86.73;94040.03;5009148;28;19979;-70
2023/08/01 06:27:42;;;;;;;;;;;;;;;7.13;84.49;94047.09;5003277;28;19918;-70
2023/08/01 06:30:08;;;;;;;;;;;;;;;7.30;83.25;94060.00;5007864;28;19917;-69
2023/08/01 06:32:33;;;;;;;;;;;;;;;7.56;83.27;94061.16;5004435;28;19921;-71
2023/08/01 06:34:58;;;;;;;;;;;;;;;7.79;81.72;94056.38;5012691;28;19913;-70
2023/08/01 06:37:23;;;;;;;;;;;;;;;8.04;80.93;94062.97;5002845;28;19960;-71
2023/08/01 06:39:49;;;;;;;;;;;;;;;8.18;79.72;94054.03;5001908;28;19925;-71
2023/08/01 06:42:15;;;;;;;;;;;;;;;8.24;78.65;94070.97;5004478;28;19917;-70
2023/08/01 06:44:41;;;;;;;;;;;;;;;7.98;79.86;94063.78;5000607;28;20036;-70
2023/08/01 06:47:06;;;;;;;;;;;;;;;8.02;78.83;94076.44;5002716;28;20606;-69
2023/08/01 06:49:31;;;;;;;;;;;;;;;8.00;80.37;94061.75;5003314;28;20410;-70
2023/08/01 06:51:56;;;;;;;;;;;;;;;7.78;80.11;94065.34;5001153;28;19925;-70
2023/08/01 06:54:22;;;;;;;;;;;;;;;7.24;83.02;94075.66;4997588;28;19925;-69
2023/08/01 06:56:47;;;;;;;;;;;;;;;7.78;80.84;94075.13;4999911;28;19921;-70
2023/08/01 06:59:16;;;;;;;;;;;;;;;7.31;82.38;94078.34;4998439;28;19925;-72
2023/08/01 07:01:43;;;;;;;;;;;;;;;6.81;83.91;94115.47;4965078;28;19937;-72
2023/08/01 07:04:08;;;;;;;;;;;;;;;6.87;85.60;94085.63;4988494;28;19929;-72
2023/08/01 07:06:33;;;;;;;;;;;;;;;7.12;84.35;94088.63;4980114;28;19926;-72
2023/08/01 07:08:59;;;;;;;;;;;;;;;7.60;82.55;94089.72;4985286;28;20358;-72
2023/08/01 07:11:24;;;;;;;;;;;;;;;7.79;81.00;94082.88;4988138;28;19937;-72
2023/08/01 07:13:49;;;;;;;;;;;;;;;7.51;82.31;94101.47;4988898;28;19926;-72
2023/08/01 07:16:15;;;;;;;;;;;;;;;7.43;82.24;94097.16;4979892;28;19921;-71
2023/08/01 07:18:40;;;;;;;;;;;;;;;7.48;81.74;94097.38;4982897;28;19921;-71
2023/08/01 07:21:05;;;;;;;;;;;;;;;7.37;81.45;94100.56;4983294;28;19930;-71
2023/08/01 07:23:31;;;;;;;;;;;;;;;7.27;81.96;94103.56;4985191;28;19926;-71
2023/08/01 07:25:56;;;;;;;;;;;;;;;7.51;82.19;94102.28;4967829;28;19997;-72
2023/08/01 07:28:21;;;;;;;;;;;;;;;7.10;83.09;94103.06;4985723;28;20013;-71
2023/08/01 07:30:47;;;;;;;;;;;;;;;7.52;82.38;94119.81;4988747;28;20425;-71
2023/08/01 07:33:12;;;;;;;;;;;;;;;7.64;81.79;94098.06;4986287;28;19953;-72
2023/08/01 07:35:37;;;;;;;;;;;;;;;8.37;79.40;94109.94;4984406;28;19925;-72
2023/08/01 07:38:02;;;;;;;;;;;;;;;8.30;78.95;94112.59;4977484;28;19947;-72
2023/08/01 07:40:27;;;;;;;;;;;;;;;8.29;78.47;94123.38;4983218;28;19925;-71
2023/08/01 07:42:53;;;;;;;;;;;;;;;8.44;77.01;94123.25;4985358;28;19977;-71
2023/08/01 07:45:19;;;;;;;;;;;;;;;8.68;76.32;94121.81;4979684;28;19937;-72
2023/08/01 07:47:44;;;;;;;;;;;;;;;8.84;76.66;94125.09;4985752;28;20231;-71
2023/08/01 07:50:10;;;;;;;;;;;;;;;8.77;76.94;94119.78;4982780;28;20430;-72
2023/08/01 07:52:35;;;;;;;;;;;;;;;9.39;73.83;94116.09;4982406;28;19926;-72
2023/08/01 07:55:00;;;;;;;;;;;;;;;9.06;74.27;94128.41;4981761;28;20429;-71
2023/08/01 07:57:26;;;;;;;;;;;;;;;9.05;74.21;94125.97;4993759;28;20537;-71
2023/08/01 07:59:51;;;;;;;;;;;;;;;8.88;75.24;94128.97;5001206;28;20469;-71
2023/08/01 08:02:16;;;;;;;;;;;;;;;9.50;73.82;94127.94;4982354;28;19977;-71
2023/08/01 08:04:41;;;;;;;;;;;;;;;9.12;73.62;94131.25;4986542;28;19929;-71
2023/08/01 08:07:07;;;;;;;;;;;;;;;9.62;73.17;94124.66;4985638;28;19926;-71
2023/08/01 08:09:32;;;;;;;;;;;;;;;9.55;72.23;94128.13;4978926;28;20160;-72
2023/08/01 08:11:57;;;;;;;;;;;;;;;9.70;72.52;94127.88;4980554;28;19940;-71
2023/08/01 08:14:23;;;;;;;;;;;;;;;10.11;70.70;94125.13;4979642;28;20449;-71
2023/08/01 08:16:48;;;;;;;;;;;;;;;10.23;71.38;94130.56;4979473;28;19921;-71
2023/08/01 08:19:13;;;;;;;;;;;;;;;10.27;70.57;94130.97;4979965;28;19944;-71
2023/08/01 08:21:38;;;;;;;;;;;;;;;9.82;69.61;94128.06;4977120;28;19937;-71
2023/08/01 08:24:04;;;;;;;;;;;;;;;9.21;71.52;94124.72;4981411;28;22339;-71
2023/08/01 08:26:29;;;;;;;;;;;;;;;9.38;72.68;94124.31;4980011;28;19956;-71
2023/08/01 08:28:54;;;;;;;;;;;;;;;9.67;71.56;94138.13;4996431;28;19922;-71
2023/08/01 08:31:19;;;;;;;;;;;;;;;10.15;69.78;94130.81;4993891;28;19921;-71
2023/08/01 08:33:45;;;;;;;;;;;;;;;10.45;68.35;94127.59;4978548;28;19926;-71
2023/08/01 08:36:10;;;;;;;;;;;;;;;10.93;66.22;94120.09;4988326;28;19952;-72
2023/08/01 08:38:35;;;;;;;;;;;;;;;11.03;65.79;94127.59;4975769;28;19973;-68
2023/08/01 08:41:10;;;;;;;;;;;;;;;10.90;66.02;94124.03;4978290;28;20455;-71
2023/08/01 08:43:35;;;;;;;;;;;;;;;10.83;65.42;94134.72;4978414;28;19933;-73
2023/08/01 08:46:01;;;;;;;;;;;;;;;11.30;65.03;94132.75;4978879;28;20735;-78
2023/08/01 08:48:26;;;;;;;;;;;;;;;11.27;64.54;94139.31;4991689;28;19932;-79
2023/08/01 08:50:52;;;;;;;;;;;;;;;10.04;68.17;94149.06;4985762;28;20390;-71
2023/08/01 08:53:17;;;;;;;;;;;;;;;10.10;69.66;94144.78;4982575;28;19925;-71
2023/08/01 08:55:42;;;;;;;;;;;;;;;9.84;70.92;94159.75;4976794;28;19926;-78
2023/08/01 08:58:08;;;;;;;;;;;;;;;9.44;72.22;94152.66;4998745;28;19937;-76
2023/08/01 09:00:35;;;;;;;;;;;;;;;8.88;74.44;94155.50;5019642;28;20134;-76
2023/08/01 09:03:00;;;;;;;;;;;;;;;8.65;76.20;94155.91;5022311;28;19918;-77
2023/08/01 09:05:26;;;;;;;;;;;;;;;8.58;77.41;94163.88;5015753;28;20456;-77
2023/08/01 09:07:52;;;;;;;;;;;;;;;8.97;78.37;94158.81;5025009;28;20390;-77
2023/08/01 09:10:17;;;;;;;;;;;;;;;9.42;77.30;94168.81;4978670;28;19926;-77
2023/08/01 09:12:42;;;;;;;;;;;;;;;9.93;74.58;94160.34;4972262;28;20224;-77
2023/08/01 09:15:07;;;;;;;;;;;;;;;9.97;73.52;94180.97;4975772;28;20374;-77
2023/08/01 09:17:33;;;;;;;;;;;;;;;9.71;71.22;94165.91;4985367;28;19922;-76
2023/08/01 09:20:05;;;;;;;;;;;;;;;9.76;72.29;94159.97;4982343;28;19922;-68
2023/08/01 09:22:40;;;;;;;;;;;;;;;9.57;71.26;94170.44;4979722;28;19965;-68
2023/08/01 09:25:06;;;;;;;;;;;;;;;10.15;72.27;94160.91;4986132;28;20613;-68
2023/08/01 09:27:32;;;;;;;;;;;;;;;10.17;70.87;94163.34;4991006;28;20162;-69
2023/08/01 09:30:04;;;;;;;;;;;;;;;9.53;72.16;94156.75;4984902;28;19921;-69
2023/08/01 09:32:29;;;;;;;;;;;;;;;10.04;70.59;94162.34;4976522;28;19932;-70
2023/08/01 09:34:58;;;;;;;;;;;;;;;10.06;69.33;94165.63;4984718;28;20306;-71
2023/08/01 09:37:23;;;;;;;;;;;;;;;10.07;70.17;94164.59;4977425;28;20021;-70
2023/08/01 09:39:55;;;;;;;;;;;;;;;10.64;68.08;94168.41;4978027;28;19926;-70
2023/08/01 09:42:20;;;;;;;;;;;;;;;10.28;69.32;94176.00;4989228;28;19917;-70
2023/08/01 09:44:46;;;;;;;;;;;;;;;10.33;71.82;94176.16;4985885;28;20298;-69
2023/08/01 09:47:12;;;;;;;;;;;;;;;8.71;76.14;94194.91;4992199;28;19918;-68
2023/08/01 09:49:46;;;;;;;;;;;;;;;8.90;78.13;94201.25;4981841;28;20309;-68
2023/08/01 09:52:11;;;;;;;;;;;;;;;9.32;77.46;94189.69;4984673;28;19948;-68
2023/08/01 09:54:37;;;;;;;;;;;;;;;8.93;78.60;94189.41;4989076;28;20334;-68
2023/08/01 09:57:04;;;;;;;;;;;;;;;9.13;78.69;94201.91;4982990;28;19981;-69
2023/08/01 09:59:29;;;;;;;;;;;;;;;9.80;78.20;94190.44;4982564;28;19945;-68
2023/08/01 10:01:54;;;;;;;;;;;;;;;9.69;75.69;94191.91;4982427;28;19930;-74
2023/08/01 10:04:29;;;;;;;;;;;;;;;10.29;71.76;94193.56;4989376;28;19936;-76
2023/08/01 10:06:59;;;;;;;;;;;;;;;10.10;70.62;94195.28;4983281;28;20322;-75
2023/08/01 10:09:24;;;;;;;;;;;;;;;10.43;70.56;94196.16;4993465;28;19925;-75
2023/08/01 10:11:51;;;;;;;;;;;;;;;10.68;68.55;94190.91;5000194;28;19917;-75
2023/08/01 10:14:16;;;;;;;;;;;;;;;10.61;68.13;94187.50;4993015;28;19910;-75
2023/08/01 10:16:42;;;;;;;;;;;;;;;11.04;67.58;94191.31;4991456;28;19928;-74
2023/08/01 10:19:07;;;;;;;;;;;;;;;11.27;64.03;94179.28;4994323;28;20021;-75
2023/08/01 10:21:33;;;;;;;;;;;;;;;11.10;65.40;94190.50;4989768;28;19976;-75
2023/08/01 10:23:58;;;;;;;;;;;;;;;11.70;63.12;94175.00;4985289;28;19918;-76
2023/08/01 10:26:23;;;;;;;;;;;;;;;11.21;63.21;94188.13;4972948;28;20294;-74
2023/08/01 10:28:52;;;;;;;;;;;;;;;11.26;63.14;94183.00;5002435;28;20010;-76
2023/08/01 10:31:18;;;;;;;;;;;;;;;12.11;63.97;94186.06;4977017;28;20562;-76
2023/08/01 10:33:44;;;;;;;;;;;;;;;12.11;62.34;94186.06;4995045;28;20398;-76
2023/08/01 10:36:19;;;;;;;;;;;;;;;12.14;61.70;94190.97;4985840;28;20419;-77
2023/08/01 10:38:44;;;;;;;;;;;;;;;12.27;59.23;94192.66;4970371;28;19929;-75
2023/08/01 10:41:18;;;;;;;;;;;;;;;12.17;60.36;94183.56;4975849;28;19926;-75
2023/08/01 10:43:43;;;;;;;;;;;;;;;12.82;58.71;94191.97;4986072;28;19922;-76
2023/08/01 10:46:08;;;;;;;;;;;;;;;12.93;57.41;94184.00;4994427;28;19936;-75
2023/08/01 10:48:34;;;;;;;;;;;;;;;13.18;61.00;94185.72;4974581;28;19977;-78
2023/08/01 10:50:59;;;;;;;;;;;;;;;13.29;57.06;94184.09;4988951;28;19972;-77
2023/08/01 10:53:24;;;;;;;;;;;;;;;12.76;55.19;94197.19;4985041;28;19921;-77
2023/08/01 10:55:49;;;;;;;;;;;;;;;12.49;56.72;94199.41;4990365;28;19922;-76
2023/08/01 10:58:15;;;;;;;;;;;;;;;12.37;57.66;94194.81;4990622;28;20040;-76
2023/08/01 11:00:41;;;;;;;;;;;;;;;12.73;57.32;94202.16;4976670;28;19926;-76
2023/08/01 11:03:06;;;;;;;;;;;;;;;12.80;56.67;94189.53;4982296;28;20752;-76
2023/08/01 11:05:32;;;;;;;;;;;;;;;12.86;54.77;94196.66;4990759;28;19926;-78
2023/08/01 11:07:57;;;;;;;;;;;;;;;13.27;54.31;94196.06;4974770;28;19932;-76
2023/08/01 11:10:24;;;;;;;;;;;;;;;13.52;51.81;94195.03;5000667;28;19922;-76
2023/08/01 11:12:49;;;;;;;;;;;;;;;14.12;52.08;94203.06;4996546;28;20028;-77
2023/08/01 11:15:14;;;;;;;;;;;;;;;13.89;51.88;94202.88;4994950;28;20012;-77
2023/08/01 11:17:40;;;;;;;;;;;;;;;13.19;52.68;94205.22;4992795;28;19921;-77
2023/08/01 11:20:07;;;;;;;;;;;;;;;13.08;53.61;94209.50;4988836;28;19925;-76
2023/08/01 11:22:32;;;;;;;;;;;;;;;13.03;53.82;94217.41;4993818;28;19972;-74
2023/08/01 11:24:58;;;;;;;;;;;;;;;12.76;56.43;94223.06;4994747;28;20049;-76
2023/08/01 11:27:24;;;;;;;;;;;;;;;12.27;59.00;94223.88;4989043;28;19951;-79
2023/08/01 11:29:49;;;;;;;;;;;;;;;11.56;63.44;94222.28;4986928;28;20004;-76
2023/08/01 11:32:14;;;;;;;;;;;;;;;11.34;65.37;94235.19;4976502;28;20290;-75
2023/08/01 11:34:41;;;;;;;;;;;;;;;10.82;66.94;94230.78;4986170;28;19932;-79
2023/08/01 11:37:06;;;;;;;;;;;;;;;10.81;67.73;94223.84;4985548;28;19922;-76
2023/08/01 11:39:31;;;;;;;;;;;;;;;10.27;68.42;94237.38;4987155;28;19941;-81
2023/08/01 11:41:56;;;;;;;;;;;;;;;11.07;67.11;94220.19;4974428;28;19925;-80
2023/08/01 11:44:25;;;;;;;;;;;;;;;11.93;64.25;94216.19;4985146;28;20024;-80
2023/08/01 11:46:50;;;;;;;;;;;;;;;12.27;61.44;94229.19;4990381;28;20019;-80
2023/08/01 11:49:15;;;;;;;;;;;;;;;12.61;60.54;94220.81;4985178;28;20410;-81
2023/08/01 11:51:41;;;;;;;;;;;;;;;13.23;57.36;94213.63;4976985;28;20109;-79
2023/08/01 11:54:07;;;;;;;;;;;;;;;13.25;55.19;94248.91;4999249;28;20201;-80
2023/08/01 11:56:32;;;;;;;;;;;;;;;13.07;55.82;94217.75;4992914;28;19918;-80
2023/08/01 11:58:58;;;;;;;;;;;;;;;12.74;56.28;94217.97;4991712;28;19922;-80
2023/08/01 12:01:23;;;;;;;;;;;;;;;12.82;56.75;94211.50;4990972;28;19964;-79
2023/08/01 12:03:52;;;;;;;;;;;;;;;13.23;56.08;94225.13;4987356;28;19917;-79
2023/08/01 12:06:21;;;;;;;;;;;;;;;13.28;56.06;94227.09;4987292;28;20933;-79
2023/08/01 12:08:46;;;;;;;;;;;;;;;12.81;56.08;94233.88;4999878;28;19969;-79
2023/08/01 12:11:19;;;;;;;;;;;;;;;12.54;55.67;94231.56;4974984;28;19973;-79
2023/08/01 12:13:44;;;;;;;;;;;;;;;12.88;55.04;94237.28;4981928;28;19998;-79
2023/08/01 12:16:09;;;;;;;;;;;;;;;12.99;55.68;94238.38;4993987;28;20223;-79
2023/08/01 12:18:37;;;;;;;;;;;;;;;12.72;55.00;94259.28;5015421;28;19924;-79
2023/08/01 12:21:05;;;;;;;;;;;;;;;13.42;56.64;94235.72;4995127;28;19917;-81
2023/08/01 12:23:30;;;;;;;;;;;;;;;13.88;54.30;94219.97;4998517;28;19921;-80
2023/08/01 12:25:55;;;;;;;;;;;;;;;14.14;52.18;94249.97;5004801;28;19925;-79
2023/08/01 12:28:21;;;;;;;;;;;;;;;14.05;50.34;94229.97;5001412;28;20455;-80
2023/08/01 12:30:46;;;;;;;;;;;;;;;14.33;49.80;94212.34;5001340;28;19918;-80
2023/08/01 12:33:11;;;;;;;;;;;;;;;14.51;49.50;94214.03;5001571;28;19926;-81
2023/08/01 12:35:40;;;;;;;;;;;;;;;14.11;49.65;94236.25;5003480;28;19937;-79
2023/08/01 12:38:06;;;;;;;;;;;;;;;13.58;50.65;94231.56;5006252;28;19968;-80
2023/08/01 12:40:31;;;;;;;;;;;;;;;14.07;50.45;94217.16;5008178;28;19937;-79
2023/08/01 12:42:56;;;;;;;;;;;;;;;13.30;50.07;94231.16;5009523;28;19910;-80